Route Details

Aircraft Information
Group: North America Fleet
Types: B738, B752, B762, B763
Route Data
Distance: 847nm
Duration: 2h 54m
Origin METAR: KLAL 010515Z AUTO 00000KT 10SM CLR 17/17 A3019 RMK AO2 T01730168
Dest. METAR: KAFW 010453Z 35011KT 10SM SCT050 OVC150 M03/M08 A3039 RMK AO2 SLP308 T10281083
Freight Data
(for Feb 1, 2023)
Load Factor:
63%
Manifested Cargo: 37,655lbs
Financial History
Total Freight: 79,405lbs
Average Load: 0lbs/flt
Fuel Used: 53,021lbs
Avg. Fuel Used: 0lbs/flt
Fuel Expense: $30,646
Avg. Fuel Expense: $0
Avg. Fuel Cost: $0/lbs
Total Gross Income: $202,483
Pilot Pay: $408
Total Expenses: $39,626
Total Revenue: $130,835
Average Revenue: $0

Capitol Logistics 433




KLAL
Lakeland Linder Regional Airport
Lakeland, Florida
KAFW
Fort Worth Alliance Airport
Fort Worth, Texas

Activity Log

Date Flight Route Aircraft Duration
07/22/2022 CPX433 DCT DORMR DCT PSTOL DCT REMIS Y280 LEV DCT AEX DODJE6 B763 2h 29m
07/09/2022 CPX433 DCT NITTS DCT HEVVN DCT DRABK DCT CEW J50 AEX DODJE6 B763 2h 29m